FLL weather

Fort Lauderdale Hollywood International Airport
Fort Lauderdale, Florida, United States

Public forecast

Using degrees Fahrenheit for public forecast. Weather courtesy of forecast.io.

METAR (pilot weather report)

Retrieved 2017/08/16 17:53 UTC (42 minutes ago):

KFLL 161753Z 12009G14KT 10SM SCT033 SCT060 SCT090 33/25 A3007 RMK AO2 LTG DSNT SW-NW SLP181 CB DSNT W-NW T03280250 10333 20306 58008

TAF (pilot weather forecast)

Retrieved 2017/08/16 18:44 UTC (0 seconds ago):

TAF KFLL 161736Z 1618/1718 11010KT P6SM VCTS FEW035 SCT050CB SCT150 FM162030 12008KT P6SM SCT040 SCT250 FM170100 12003KT P6SM FEW040 SCT250 FM171500 12007KT P6SM SCT040 SCT250